createdAt,value
2023-04-16T00:00:01.776Z,15.66
2023-04-16T00:15:01.449Z,15.35
2023-04-16T00:30:02.117Z,15.38
2023-04-16T00:45:01.906Z,15.13
2023-04-16T01:00:01.659Z,15.37
2023-04-16T01:15:01.395Z,15.05
2023-04-16T01:30:02.035Z,14.91
2023-04-16T01:45:01.704Z,14.4
2023-04-16T02:00:01.383Z,14.06
2023-04-16T02:15:02.064Z,14.04
2023-04-16T02:30:01.827Z,14.17
2023-04-16T02:45:01.536Z,14.25
2023-04-16T03:00:01.598Z,14.26
2023-04-16T03:15:02.290Z,13.89
2023-04-16T03:30:01.969Z,13.74
2023-04-16T03:45:01.628Z,13.72
2023-04-16T04:00:02.528Z,13.72
2023-04-16T04:15:01.822Z,13.45
2023-04-16T04:30:01.613Z,13.01
2023-04-16T04:45:02.247Z,12.87
2023-04-16T05:00:01.912Z,12.85
2023-04-16T05:15:01.590Z,12.82
2023-04-16T05:30:02.274Z,12.91
2023-04-16T05:45:01.941Z,13.29
2023-04-16T06:00:01.564Z,13.72
2023-04-16T06:15:02.222Z,14.24
2023-04-16T06:30:01.873Z,14.32
2023-04-16T06:45:01.610Z,14.52
2023-04-16T07:00:02.267Z,14.63
2023-04-16T07:15:01.928Z,15.64
2023-04-16T07:30:01.612Z,17
2023-04-16T07:45:01.349Z,17.77
2023-04-16T08:00:01.967Z,19.31
2023-04-16T08:15:01.654Z,19.57
2023-04-16T08:30:01.270Z,20.31
2023-04-16T08:45:01.902Z,20.16
2023-04-16T09:00:01.545Z,20.16
2023-04-16T09:15:02.213Z,20.43
2023-04-16T09:30:01.855Z,20.88
2023-04-16T09:45:04.124Z,20.58
2023-04-16T10:00:01.245Z,20.53
2023-04-16T10:15:01.821Z,20.36
2023-04-16T10:30:01.451Z,20.82
2023-04-16T10:45:02.152Z,21.43
2023-04-16T11:00:02.073Z,23.06
2023-04-16T11:15:01.817Z,24.79
2023-04-16T11:30:01.554Z,25.38
2023-04-16T11:45:02.204Z,23.5
2023-04-16T12:00:04.005Z,23.34
2023-04-16T12:15:01.697Z,23.44
2023-04-16T12:30:02.353Z,23.84
2023-04-16T12:45:01.959Z,23.89
2023-04-16T13:00:01.614Z,24.5
2023-04-16T13:15:02.223Z,22.94
2023-04-16T13:30:01.925Z,21.79
2023-04-16T13:45:01.612Z,23.93
2023-04-16T14:00:02.225Z,24.98
2023-04-16T14:15:01.866Z,23.96
2023-04-16T14:30:01.483Z,23.12
2023-04-16T14:45:02.071Z,23.63
2023-04-16T15:00:01.685Z,23.54
2023-04-16T15:15:01.333Z,21.78
2023-04-16T15:30:02.108Z,21.82
2023-04-16T15:45:01.806Z,21.86
2023-04-16T16:15:02.110Z,21.72
2023-04-16T16:30:01.820Z,21.07
2023-04-16T16:45:01.474Z,20.69
2023-04-16T17:00:02.112Z,20.58
2023-04-16T17:15:01.767Z,20.36
2023-04-16T17:30:01.448Z,19.96
2023-04-16T17:45:02.019Z,19.5
2023-04-16T18:00:01.651Z,19.17
2023-04-16T18:15:01.303Z,18.93
2023-04-16T18:30:04.048Z,18.94
2023-04-16T18:45:01.164Z,18.95
2023-04-16T19:00:02.143Z,18.87
2023-04-16T19:15:01.808Z,18.83
2023-04-16T19:30:01.622Z,19.01
2023-04-16T19:45:02.304Z,19.01
2023-04-16T20:00:01.950Z,18.82
2023-04-16T20:15:01.666Z,18.37
2023-04-16T20:30:02.322Z,18.08
2023-04-16T20:45:01.968Z,17.64
2023-04-16T21:00:01.620Z,17.51
2023-04-16T21:15:02.313Z,17.33
2023-04-16T21:30:01.986Z,17.08
2023-04-16T21:45:01.640Z,17.01
2023-04-16T22:00:02.351Z,16.67
2023-04-16T22:15:03.081Z,16.73
2023-04-16T22:30:02.093Z,16.51
2023-04-16T22:45:01.728Z,16.27
2023-04-16T23:00:01.363Z,15.98
2023-04-16T23:15:02.000Z,15.83
2023-04-16T23:30:01.678Z,15.64
2023-04-16T23:45:01.450Z,15.44
